EPLB

Lublin Airport

Lublin, Poland
METAR EPLB 211300Z 32006KT 230V020 9999 SCT045 27/16 Q1010
Observed Flight Rules
Jul-21 @ 13:00 UTC (40 minutes ago) Visual Flight Rules
Wind Visibility Clouds
320° at 6 knots 10,000+ meters
  • Scattered at 4,500' AGL
Temperatures Readings
Current 27°C / 81°F
Dewpoint 16°C / 61°F
Humidity 51%
Altimeter 29.82" Hg
Pressure 1010 hPa
Elevation 206
METAR EPLB 211300Z 32006KT 230V020 9999 SCT045 27/16 Q1010
Observed Flight Rules
Jul-21 @ 13:00 UTC
(40 minutes ago)
VFR
Wind Visibility
320° at 6 knots 10,000+ meters
Clouds
  • Scattered at 4,500' AGL
Temperature Dewpoint
27°C / 81°F 16°C / 61°F
Humidity Altimeter Pressure
51% 29.82" Hg 1010 hPa